Time;durP1;ratioP1;P1;durP2;ratioP2;P2;SDS_P1;SDS_P2;PMS_P1;PMS_P2;Temp;Humidity;BMP_temperature;BMP_pressure;BME280_temperature;BME280_humidity;BME280_pressure;Samples;Min_cycle;Max_cycle;Signal;HPM_P1;HPM_P2
2021/06/05 00:01:50;;;;;;;566.58;504.30;;;;;;;;;;5043098;28;20388;-77
2021/06/05 00:04:16;;;;;;;573.47;509.73;;;;;;;;;;5031907;28;20178;-76
2021/06/05 00:06:42;;;;;;;562.33;496.38;;;;;;;;;;5024465;28;20465;-76
2021/06/05 00:09:09;;;;;;;560.92;493.70;;;;;;;;;;5042257;28;20091;-76
2021/06/05 00:11:36;;;;;;;551.90;483.02;;;;;;;;;;5023612;28;20385;-77
2021/06/05 00:14:03;;;;;;;569.35;506.10;;;;;;;;;;5025750;28;20028;-76
2021/06/05 00:16:38;;;;;;;552.00;486.88;;;;;;;;;;5029372;28;20107;-77
2021/06/05 00:19:04;;;;;;;559.47;496.65;;;;;;;;;;5044589;28;20025;-76
2021/06/05 00:21:30;;;;;;;575.22;509.05;;;;;;;;;;5046505;28;20025;-75
2021/06/05 00:23:57;;;;;;;563.42;493.08;;;;;;;;;;5043642;28;20479;-75
2021/06/05 00:26:23;;;;;;;588.65;520.60;;;;;;;;;;5021340;28;20032;-76
2021/06/05 00:28:49;;;;;;;583.35;516.97;;;;;;;;;;5038923;28;20033;-76
2021/06/05 00:31:15;;;;;;;573.13;508.10;;;;;;;;;;5032679;28;20036;-76
2021/06/05 00:33:41;;;;;;;596.55;529.55;;;;;;;;;;5026646;28;20590;-76
2021/06/05 00:36:09;;;;;;;651.53;578.50;;;;;;;;;;5026899;28;20025;-76
2021/06/05 00:38:36;;;;;;;644.53;574.13;;;;;;;;;;5043763;28;20043;-76
2021/06/05 00:41:03;;;;;;;585.10;516.50;;;;;;;;;;5041914;28;20037;-76
2021/06/05 00:43:30;;;;;;;590.63;519.85;;;;;;;;;;5047693;28;20039;-76
2021/06/05 00:45:56;;;;;;;619.70;546.05;;;;;;;;;;5045642;28;20383;-77
2021/06/05 00:48:23;;;;;;;592.95;524.58;;;;;;;;;;5025664;28;20484;-75
2021/06/05 00:50:50;;;;;;;596.42;526.80;;;;;;;;;;5025281;28;20030;-75
2021/06/05 00:53:16;;;;;;;569.95;498.17;;;;;;;;;;5025180;28;20454;-76
2021/06/05 00:55:44;;;;;;;620.10;551.72;;;;;;;;;;5040593;28;20032;-76
2021/06/05 00:58:10;;;;;;;591.15;519.22;;;;;;;;;;5039096;28;20542;-76
2021/06/05 01:00:51;;;;;;;652.38;580.55;;;;;;;;;;5044422;28;20032;-75
2021/06/05 01:03:17;;;;;;;558.13;486.15;;;;;;;;;;5024926;28;20492;-75
2021/06/05 01:05:44;;;;;;;574.42;501.08;;;;;;;;;;5042689;28;20028;-76
2021/06/05 01:08:18;;;;;;;603.53;519.90;;;;;;;;;;5048012;28;20013;-76
2021/06/05 01:10:44;;;;;;;601.95;518.10;;;;;;;;;;5026978;28;20036;-76
2021/06/05 01:13:23;;;;;;;569.05;497.17;;;;;;;;;;5041773;28;20036;-76
2021/06/05 01:15:52;;;;;;;564.83;484.70;;;;;;;;;;5047147;28;20477;-75
2021/06/05 01:18:23;;;;;;;576.38;496.48;;;;;;;;;;5024709;28;20028;-76
2021/06/05 01:21:08;;;;;;;566.35;486.50;;;;;;;;;;5041677;28;20029;-76
2021/06/05 01:23:55;;;;;;;567.00;484.05;;;;;;;;;;5045787;28;20044;-75
2021/06/05 01:26:26;;;;;;;578.72;493.58;;;;;;;;;;5043104;28;20090;-76
2021/06/05 01:29:07;;;;;;;614.38;532.17;;;;;;;;;;5044753;28;20021;-75
2021/06/05 01:31:36;;;;;;;569.20;489.95;;;;;;;;;;5040315;28;20036;-76
2021/06/05 01:34:02;;;;;;;565.70;485.48;;;;;;;;;;5045401;28;20029;-76
2021/06/05 01:36:36;;;;;;;574.20;491.92;;;;;;;;;;5043027;28;20076;-76
2021/06/05 01:39:06;;;;;;;602.00;517.47;;;;;;;;;;5023014;28;20455;-76
2021/06/05 01:41:33;;;;;;;558.53;478.40;;;;;;;;;;5025490;28;20041;-76
2021/06/05 01:43:59;;;;;;;562.85;480.30;;;;;;;;;;5044750;28;20106;-76
2021/06/05 01:46:30;;;;;;;621.55;539.67;;;;;;;;;;5024904;28;20091;-75
2021/06/05 01:48:56;;;;;;;684.88;603.08;;;;;;;;;;5043354;28;20037;-76
2021/06/05 01:51:23;;;;;;;616.80;525.72;;;;;;;;;;5039693;28;20633;-76
2021/06/05 01:53:54;;;;;;;568.55;490.05;;;;;;;;;;5046279;28;20491;-75
2021/06/05 01:56:20;;;;;;;576.95;497.05;;;;;;;;;;5049993;28;20032;-76
2021/06/05 01:58:49;;;;;;;580.72;494.30;;;;;;;;;;5026680;28;20091;-75
2021/06/05 02:01:15;;;;;;;567.95;480.60;;;;;;;;;;5029940;28;20543;-75
2021/06/05 02:03:42;;;;;;;606.67;511.63;;;;;;;;;;5045602;28;20112;-76
2021/06/05 02:06:08;;;;;;;578.55;486.17;;;;;;;;;;5044872;28;20075;-75
2021/06/05 02:08:34;;;;;;;599.10;506.60;;;;;;;;;;5046722;28;20075;-76
2021/06/05 02:11:03;;;;;;;588.22;496.17;;;;;;;;;;5048343;28;20134;-75
2021/06/05 02:13:36;;;;;;;663.30;568.45;;;;;;;;;;5030233;28;20040;-75
2021/06/05 02:16:06;;;;;;;648.08;549.15;;;;;;;;;;5028608;28;20021;-75
2021/06/05 02:18:33;;;;;;;576.53;483.55;;;;;;;;;;5022071;28;20380;-76
2021/06/05 02:21:08;;;;;;;619.05;525.20;;;;;;;;;;5047909;28;20373;-75
2021/06/05 02:23:39;;;;;;;631.40;542.13;;;;;;;;;;5010137;28;20314;-75
2021/06/05 02:26:07;;;;;;;604.60;517.17;;;;;;;;;;5027850;28;20017;-75
2021/06/05 02:28:34;;;;;;;581.25;489.88;;;;;;;;;;5029276;28;20025;-76
2021/06/05 02:31:00;;;;;;;574.85;492.88;;;;;;;;;;5045235;28;20048;-76
2021/06/05 02:33:27;;;;;;;610.67;517.65;;;;;;;;;;5033546;28;20021;-76
2021/06/05 02:35:54;;;;;;;603.50;511.80;;;;;;;;;;5027248;28;20025;-76
2021/06/05 02:38:21;;;;;;;596.47;505.52;;;;;;;;;;5031109;28;20029;-77
2021/06/05 02:40:48;;;;;;;575.55;487.00;;;;;;;;;;5023585;28;20091;-76
2021/06/05 02:43:19;;;;;;;574.55;489.98;;;;;;;;;;5027242;28;20097;-76
2021/06/05 02:45:49;;;;;;;569.85;464.05;;;;;;;;;;5026774;28;20032;-76
2021/06/05 02:48:15;;;;;;;;;;;;;;;;;;5045460;28;20150;-77
2021/06/05 02:50:44;;;;;;;557.95;455.98;;;;;;;;;;5028399;28;20097;-78
2021/06/05 02:53:10;;;;;;;560.17;464.65;;;;;;;;;;5048115;28;20126;-77
2021/06/05 02:55:36;;;;;;;568.70;469.85;;;;;;;;;;5046065;28;20025;-76
2021/06/05 02:58:03;;;;;;;632.90;539.28;;;;;;;;;;5047025;28;20033;-77
2021/06/05 03:00:32;;;;;;;660.75;580.33;;;;;;;;;;5047162;28;20021;-78
2021/06/05 03:02:58;;;;;;;595.72;505.05;;;;;;;;;;5048508;28;20033;-78
2021/06/05 03:05:25;;;;;;;598.28;504.20;;;;;;;;;;5042226;28;20079;-76
2021/06/05 03:07:51;;;;;;;587.25;491.60;;;;;;;;;;5027699;28;20029;-78
2021/06/05 03:10:17;;;;;;;636.53;540.38;;;;;;;;;;5025040;28;20034;-78
2021/06/05 03:12:44;;;;;;;570.22;482.75;;;;;;;;;;5049412;28;20372;-77
2021/06/05 03:15:11;;;;;;;552.15;468.10;;;;;;;;;;5028995;28;20056;-77
2021/06/05 03:17:37;;;;;;;571.22;485.95;;;;;;;;;;5049590;28;20025;-76
2021/06/05 03:20:05;;;;;;;554.83;461.05;;;;;;;;;;5048219;28;20029;-77
2021/06/05 03:22:31;;;;;;;550.22;457.77;;;;;;;;;;5048839;28;20025;-77
2021/06/05 03:24:57;;;;;;;551.40;455.83;;;;;;;;;;5049846;28;20550;-77
2021/06/05 03:27:26;;;;;;;554.33;463.17;;;;;;;;;;5028066;28;20028;-78
2021/06/05 03:29:52;;;;;;;552.85;464.58;;;;;;;;;;5048408;28;20025;-77
2021/06/05 03:32:18;;;;;;;568.97;475.63;;;;;;;;;;5023293;28;20022;-78
2021/06/05 03:34:45;;;;;;;570.40;479.17;;;;;;;;;;5031853;28;20527;-76
2021/06/05 03:37:11;;;;;;;551.28;462.33;;;;;;;;;;5031224;28;20489;-77
2021/06/05 03:39:37;;;;;;;574.35;469.58;;;;;;;;;;5046067;28;20553;-77
2021/06/05 03:42:03;;;;;;;556.45;463.30;;;;;;;;;;5047630;28;20024;-77
2021/06/05 03:44:29;;;;;;;551.65;457.05;;;;;;;;;;5024963;28;20035;-77
2021/06/05 03:46:55;;;;;;;552.15;459.63;;;;;;;;;;5021464;28;20021;-77
2021/06/05 03:49:21;;;;;;;553.75;464.88;;;;;;;;;;5045767;28;20029;-77
2021/06/05 03:51:47;;;;;;;575.58;478.05;;;;;;;;;;5045528;28;20052;-77
2021/06/05 03:54:13;;;;;;;547.05;452.13;;;;;;;;;;5043808;28;20051;-77
2021/06/05 03:56:39;;;;;;;540.55;448.58;;;;;;;;;;5027383;28;20024;-78
2021/06/05 03:59:08;;;;;;;538.55;445.55;;;;;;;;;;5047309;28;20039;-77
2021/06/05 04:01:33;;;;;;;563.92;474.98;;;;;;;;;;5043411;28;20031;-77
2021/06/05 04:03:59;;;;;;;573.30;479.38;;;;;;;;;;5025573;28;20264;-77
2021/06/05 04:06:26;;;;;;;682.95;581.08;;;;;;;;;;5045438;28;20029;-77
2021/06/05 04:08:53;;;;;;;688.30;595.63;;;;;;;;;;5029265;28;20024;-78
2021/06/05 04:11:19;;;;;;;563.90;476.05;;;;;;;;;;5026059;28;20021;-77
2021/06/05 04:13:46;;;;;;;571.10;482.17;;;;;;;;;;5028963;28;20516;-77
2021/06/05 04:16:12;;;;;;;566.03;473.27;;;;;;;;;;5044834;28;20020;-77
2021/06/05 04:18:39;;;;;;;551.42;463.73;;;;;;;;;;5027719;28;20017;-77
2021/06/05 04:21:06;;;;;;;550.80;465.67;;;;;;;;;;5046780;28;20499;-77
2021/06/05 04:23:33;;;;;;;547.00;454.98;;;;;;;;;;5044345;28;20028;-77
2021/06/05 04:25:59;;;;;;;547.38;458.38;;;;;;;;;;5033866;28;20481;-77
2021/06/05 04:28:25;;;;;;;546.38;459.67;;;;;;;;;;5040210;28;20039;-77
2021/06/05 04:30:52;;;;;;;538.55;445.45;;;;;;;;;;5024923;28;20025;-77
2021/06/05 04:33:19;;;;;;;552.33;461.35;;;;;;;;;;5046037;28;20031;-77
2021/06/05 04:35:45;;;;;;;559.58;466.65;;;;;;;;;;5026029;28;20388;-77
2021/06/05 04:38:11;;;;;;;589.15;495.77;;;;;;;;;;5044269;28;20340;-77
2021/06/05 04:40:38;;;;;;;565.72;477.35;;;;;;;;;;5047188;28;20037;-77
2021/06/05 04:43:04;;;;;;;541.60;452.90;;;;;;;;;;5029202;28;20029;-77
2021/06/05 04:45:30;;;;;;;553.53;466.02;;;;;;;;;;5045716;28;20024;-76
2021/06/05 04:47:56;;;;;;;559.25;468.77;;;;;;;;;;5039981;28;20495;-77
2021/06/05 04:50:24;;;;;;;542.03;449.05;;;;;;;;;;5023757;28;20033;-76
2021/06/05 04:52:50;;;;;;;573.22;486.85;;;;;;;;;;5045603;28;20111;-77
2021/06/05 04:55:16;;;;;;;541.15;453.15;;;;;;;;;;5029290;28;20127;-76
2021/06/05 04:57:42;;;;;;;540.53;455.60;;;;;;;;;;5025955;28;20083;-76
2021/06/05 05:00:09;;;;;;;542.05;453.02;;;;;;;;;;5044679;28;20124;-76
2021/06/05 05:02:35;;;;;;;532.00;449.27;;;;;;;;;;5028904;28;20060;-76
2021/06/05 05:05:01;;;;;;;559.05;473.42;;;;;;;;;;5046635;28;20060;-76
2021/06/05 05:07:27;;;;;;;565.97;469.38;;;;;;;;;;5022083;28;20120;-76
2021/06/05 05:09:53;;;;;;;540.65;453.13;;;;;;;;;;5042441;28;20087;-76
2021/06/05 05:12:19;;;;;;;535.42;449.42;;;;;;;;;;5022728;28;20460;-76
2021/06/05 05:14:45;;;;;;;528.03;440.42;;;;;;;;;;5024271;28;20043;-77
2021/06/05 05:17:11;;;;;;;531.80;450.45;;;;;;;;;;5023660;28;20410;-76
2021/06/05 05:19:37;;;;;;;533.78;445.95;;;;;;;;;;5039702;28;20033;-75
2021/06/05 05:22:04;;;;;;;536.90;445.77;;;;;;;;;;5027554;28;20040;-76
2021/06/05 05:24:30;;;;;;;549.83;461.08;;;;;;;;;;5044053;28;20029;-76
2021/06/05 05:26:56;;;;;;;573.58;484.63;;;;;;;;;;5044237;28;20037;-76
2021/06/05 05:29:22;;;;;;;563.85;473.15;;;;;;;;;;5030633;28;20533;-76
2021/06/05 05:31:48;;;;;;;587.70;496.13;;;;;;;;;;5047837;28;20468;-76
2021/06/05 05:34:14;;;;;;;548.00;458.02;;;;;;;;;;5046189;28;20033;-77
2021/06/05 05:36:40;;;;;;;595.08;502.35;;;;;;;;;;5045564;28;20029;-75
2021/06/05 05:39:09;;;;;;;605.20;506.20;;;;;;;;;;5027948;28;20291;-76
2021/06/05 05:41:35;;;;;;;586.80;498.27;;;;;;;;;;5047553;28;20057;-75
2021/06/05 05:44:01;;;;;;;566.45;473.02;;;;;;;;;;5030539;28;20060;-76
2021/06/05 05:46:28;;;;;;;599.95;509.73;;;;;;;;;;5033152;28;20036;-77
2021/06/05 05:48:54;;;;;;;578.15;486.88;;;;;;;;;;5047489;28;20670;-76
2021/06/05 05:51:21;;;;;;;580.63;493.20;;;;;;;;;;5048019;28;20058;-75
2021/06/05 05:53:47;;;;;;;574.10;486.83;;;;;;;;;;5031492;28;20044;-75
2021/06/05 05:56:14;;;;;;;576.75;488.02;;;;;;;;;;5045263;28;20017;-76
2021/06/05 05:58:43;;;;;;;564.17;474.88;;;;;;;;;;5030189;28;20155;-76
2021/06/05 06:01:11;;;;;;;552.63;466.60;;;;;;;;;;5049336;28;20033;-77
2021/06/05 06:03:37;;;;;;;546.42;461.63;;;;;;;;;;5026950;28;20484;-76
2021/06/05 06:06:05;;;;;;;537.28;451.75;;;;;;;;;;5029368;28;20168;-76
2021/06/05 06:08:31;;;;;;;541.63;454.73;;;;;;;;;;5047672;28;20033;-76
2021/06/05 06:10:57;;;;;;;540.50;455.63;;;;;;;;;;5048919;28;20028;-76
2021/06/05 06:13:23;;;;;;;539.33;456.17;;;;;;;;;;5044935;28;20551;-75
2021/06/05 06:15:49;;;;;;;542.92;463.05;;;;;;;;;;5049299;28;20029;-76
2021/06/05 06:18:15;;;;;;;543.40;462.13;;;;;;;;;;5046458;28;20052;-76
2021/06/05 06:20:44;;;;;;;546.08;466.00;;;;;;;;;;5048032;28;20156;-76
2021/06/05 06:23:11;;;;;;;541.35;460.55;;;;;;;;;;5048920;28;20037;-76
2021/06/05 06:25:40;;;;;;;546.88;466.20;;;;;;;;;;5046850;28;20039;-75
2021/06/05 06:28:10;;;;;;;542.13;459.40;;;;;;;;;;5047897;28;21417;-76
2021/06/05 06:30:36;;;;;;;;;;;;;;;;;;5027140;28;20025;-75
2021/06/05 06:33:04;;;;;;;545.90;455.50;;;;;;;;;;5044736;28;19915;-74
2021/06/05 06:35:31;;;;;;;552.08;469.60;;;;;;;;;;5019886;28;20124;-75
2021/06/05 06:37:57;;;;;;;553.28;467.70;;;;;;;;;;5046961;28;20384;-76
2021/06/05 06:40:29;;;;;;;550.53;467.02;;;;;;;;;;5026919;28;20416;-75
2021/06/05 06:42:55;;;;;;;556.92;476.25;;;;;;;;;;5046738;28;20366;-75
2021/06/05 06:45:21;;;;;;;554.47;471.92;;;;;;;;;;5051543;28;20060;-75
2021/06/05 06:47:48;;;;;;;549.22;469.85;;;;;;;;;;5024938;28;20030;-75
2021/06/05 06:50:18;;;;;;;540.63;459.00;;;;;;;;;;5049547;28;20048;-76
2021/06/05 06:52:44;;;;;;;548.72;464.77;;;;;;;;;;5033777;28;20119;-75
2021/06/05 06:55:10;;;;;;;544.08;462.92;;;;;;;;;;5023988;28;20117;-76
2021/06/05 06:57:36;;;;;;;538.90;454.88;;;;;;;;;;5051469;28;20095;-76
2021/06/05 07:00:08;;;;;;;544.17;460.98;;;;;;;;;;5032540;28;20026;-76
2021/06/05 07:02:34;;;;;;;550.85;468.35;;;;;;;;;;5026698;28;20464;-76
2021/06/05 07:05:00;;;;;;;544.78;462.52;;;;;;;;;;5048687;28;20032;-75
2021/06/05 07:07:26;;;;;;;544.90;457.08;;;;;;;;;;5050148;28;20021;-75
2021/06/05 07:09:52;;;;;;;553.50;477.05;;;;;;;;;;5049442;28;20029;-75
2021/06/05 07:12:18;;;;;;;557.38;472.15;;;;;;;;;;5031379;28;20029;-76
2021/06/05 07:14:44;;;;;;;552.13;472.00;;;;;;;;;;5049328;28;20035;-75
2021/06/05 07:17:10;;;;;;;557.30;474.33;;;;;;;;;;5046118;28;20033;-76
2021/06/05 07:19:36;;;;;;;563.03;485.75;;;;;;;;;;5027194;28;20029;-75
2021/06/05 07:22:03;;;;;;;568.78;492.15;;;;;;;;;;5027482;28;20103;-76
2021/06/05 07:24:29;;;;;;;627.72;545.20;;;;;;;;;;5027296;28;20112;-75
2021/06/05 07:26:55;;;;;;;623.50;546.47;;;;;;;;;;5046703;28;20120;-76
2021/06/05 07:29:21;;;;;;;602.03;521.78;;;;;;;;;;5023699;28;20997;-76
2021/06/05 07:31:51;;;;;;;575.88;490.98;;;;;;;;;;5026069;28;20108;-76
2021/06/05 07:34:23;;;;;;;554.28;468.20;;;;;;;;;;5046149;28;20017;-76
2021/06/05 07:36:51;;;;;;;566.22;486.98;;;;;;;;;;5045823;28;20385;-77
2021/06/05 07:39:21;;;;;;;559.58;482.73;;;;;;;;;;5045465;28;20083;-75
2021/06/05 07:41:47;;;;;;;557.35;480.70;;;;;;;;;;5030283;28;20431;-76
2021/06/05 07:44:13;;;;;;;550.63;480.42;;;;;;;;;;5045938;28;20634;-76
2021/06/05 07:46:47;;;;;;;545.83;471.92;;;;;;;;;;5028979;28;20043;-75
2021/06/05 07:49:13;;;;;;;543.38;469.23;;;;;;;;;;5040132;28;20270;-76
2021/06/05 07:51:40;;;;;;;542.22;468.60;;;;;;;;;;5019906;28;20108;-76
2021/06/05 07:54:06;;;;;;;541.90;465.58;;;;;;;;;;5044026;28;20025;-76
2021/06/05 07:56:33;;;;;;;539.47;463.52;;;;;;;;;;5046157;28;20028;-76
2021/06/05 07:58:59;;;;;;;543.22;474.40;;;;;;;;;;5045544;28;20029;-76
2021/06/05 08:01:25;;;;;;;538.92;471.08;;;;;;;;;;5043415;28;20495;-75
2021/06/05 08:03:52;;;;;;;539.60;473.85;;;;;;;;;;5043326;28;20025;-76
2021/06/05 08:06:18;;;;;;;543.28;482.67;;;;;;;;;;5045695;28;20037;-76
2021/06/05 08:08:44;;;;;;;540.80;481.08;;;;;;;;;;5047206;28;20060;-75
2021/06/05 08:11:12;;;;;;;547.72;487.33;;;;;;;;;;5027321;28;20052;-76
2021/06/05 08:13:38;;;;;;;565.35;503.23;;;;;;;;;;5044415;28;20091;-75
2021/06/05 08:16:04;;;;;;;568.35;504.73;;;;;;;;;;5020723;28;21515;-76
2021/06/05 08:18:30;;;;;;;598.30;532.90;;;;;;;;;;5039956;28;20017;-75
2021/06/05 08:20:57;;;;;;;563.13;501.20;;;;;;;;;;5027865;28;20025;-76
2021/06/05 08:23:25;;;;;;;562.58;500.63;;;;;;;;;;5021216;28;20030;-75
2021/06/05 08:25:51;;;;;;;576.47;513.10;;;;;;;;;;5026110;28;20025;-75
2021/06/05 08:28:22;;;;;;;592.55;527.95;;;;;;;;;;5043815;28;20032;-78
2021/06/05 08:30:55;;;;;;;608.90;542.72;;;;;;;;;;5022613;28;20029;-77
2021/06/05 08:33:21;;;;;;;621.17;553.60;;;;;;;;;;5048287;28;20504;-79
2021/06/05 08:35:48;;;;;;;569.55;507.15;;;;;;;;;;5030718;28;20480;-78
2021/06/05 08:38:15;;;;;;;568.13;506.20;;;;;;;;;;5023619;28;20118;-77
2021/06/05 08:40:44;;;;;;;563.00;501.73;;;;;;;;;;5022495;28;20056;-78
2021/06/05 08:43:12;;;;;;;562.45;500.75;;;;;;;;;;5039988;28;20064;-78
2021/06/05 08:45:38;;;;;;;581.50;518.78;;;;;;;;;;5024019;28;20035;-78
2021/06/05 08:48:07;;;;;;;590.47;527.15;;;;;;;;;;5022944;28;20027;-78
2021/06/05 08:50:33;;;;;;;603.63;539.67;;;;;;;;;;5022912;28;20338;-78
2021/06/05 08:53:18;;;;;;;585.15;522.70;;;;;;;;;;5024939;28;20078;-77
2021/06/05 08:55:44;;;;;;;576.80;514.78;;;;;;;;;;5021212;28;20193;-78
2021/06/05 08:58:10;;;;;;;572.38;510.60;;;;;;;;;;5029296;28;20025;-77
2021/06/05 09:00:41;;;;;;;581.17;518.33;;;;;;;;;;5026359;28;20039;-77
2021/06/05 09:03:13;;;;;;;554.08;493.50;;;;;;;;;;5032096;28;20064;-77
2021/06/05 09:05:45;;;;;;;580.53;517.53;;;;;;;;;;5030779;28;20065;-78
2021/06/05 09:08:15;;;;;;;590.47;526.03;;;;;;;;;;5034324;28;20053;-79
2021/06/05 09:10:42;;;;;;;562.30;500.92;;;;;;;;;;5033189;28;20030;-78
2021/06/05 09:13:08;;;;;;;572.67;510.08;;;;;;;;;;5033710;28;20022;-78
2021/06/05 09:15:35;;;;;;;574.70;511.92;;;;;;;;;;5021119;28;20501;-75
2021/06/05 09:18:03;;;;;;;590.15;525.70;;;;;;;;;;5026652;28;20089;-77
2021/06/05 09:20:59;;;;;;;567.17;504.65;;;;;;;;;;5032765;28;20115;-77
2021/06/05 09:23:32;;;;;;;562.80;500.52;;;;;;;;;;5017363;28;20050;-77
2021/06/05 09:26:17;;;;;;;565.80;502.23;;;;;;;;;;5032635;28;20041;-76
2021/06/05 09:28:43;;;;;;;582.08;517.80;;;;;;;;;;5030087;28;20420;-76
2021/06/05 09:31:15;;;;;;;586.85;522.33;;;;;;;;;;5036858;28;20484;-76
2021/06/05 09:33:42;;;;;;;577.97;514.47;;;;;;;;;;5025302;28;20047;-76
2021/06/05 09:36:27;;;;;;;617.20;550.22;;;;;;;;;;5053152;28;20017;-78
2021/06/05 09:39:13;;;;;;;570.20;507.65;;;;;;;;;;5031389;28;20503;-78
2021/06/05 09:41:39;;;;;;;562.80;500.88;;;;;;;;;;5033674;28;20049;-79
2021/06/05 09:44:33;;;;;;;589.55;525.90;;;;;;;;;;5039674;28;20032;-77
2021/06/05 09:47:05;;;;;;;584.75;520.80;;;;;;;;;;5008334;28;20117;-77
2021/06/05 09:49:35;;;;;;;576.83;513.58;;;;;;;;;;5034780;28;20120;-77
2021/06/05 09:52:04;;;;;;;562.40;500.88;;;;;;;;;;5031139;28;20495;-77
2021/06/05 09:57:50;;;;;;;556.72;495.73;;;;;;;;;;5031173;28;20385;-76
2021/06/05 10:00:33;;;;;;;561.45;500.42;;;;;;;;;;5027566;28;20061;-78
2021/06/05 10:03:19;;;;;;;563.40;501.98;;;;;;;;;;5023492;28;20072;-77
2021/06/05 10:05:47;;;;;;;561.90;501.05;;;;;;;;;;5027063;28;20458;-76
2021/06/05 10:08:34;;;;;;;574.60;512.67;;;;;;;;;;5030743;28;21603;-77
2021/06/05 10:11:09;;;;;;;570.22;508.05;;;;;;;;;;5031013;28;20029;-76
2021/06/05 10:13:38;;;;;;;582.38;519.33;;;;;;;;;;5029692;28;20112;-77
2021/06/05 10:16:21;;;;;;;577.08;514.85;;;;;;;;;;5038776;28;20029;-76
2021/06/05 10:19:00;;;;;;;577.58;515.20;;;;;;;;;;5048220;28;20029;-75
2021/06/05 10:21:26;;;;;;;569.83;507.93;;;;;;;;;;5015933;28;20026;-75
2021/06/05 10:23:55;;;;;;;584.90;521.40;;;;;;;;;;5048769;28;20051;-77
2021/06/05 10:26:24;;;;;;;588.78;525.05;;;;;;;;;;5048033;28;20022;-79
2021/06/05 10:29:18;;;;;;;564.53;503.17;;;;;;;;;;5033620;28;20481;-75
2021/06/05 10:31:45;;;;;;;574.35;511.70;;;;;;;;;;5029823;28;20194;-76
2021/06/05 10:34:31;;;;;;;574.25;511.42;;;;;;;;;;5033659;28;20025;-75
2021/06/05 10:36:57;;;;;;;574.13;511.77;;;;;;;;;;5034387;28;20026;-77
2021/06/05 10:39:40;;;;;;;572.40;509.50;;;;;;;;;;5043819;28;20030;-76
2021/06/05 10:42:26;;;;;;;595.53;530.13;;;;;;;;;;5010168;28;20034;-75
2021/06/05 10:44:56;;;;;;;602.20;536.78;;;;;;;;;;5003685;28;20033;-76
2021/06/05 10:47:22;;;;;;;638.38;569.42;;;;;;;;;;5005696;28;20088;-76
2021/06/05 10:56:19;;;;;;;587.00;522.53;;;;;;;;;;5013673;28;20091;-75
2021/06/05 10:58:47;;;;;;;559.38;492.58;;;;;;;;;;5013299;28;20033;-78
2021/06/05 11:01:33;;;;;;;545.67;483.88;;;;;;;;;;5015403;28;20033;-78
2021/06/05 11:04:06;;;;;;;545.63;484.33;;;;;;;;;;5010085;28;20033;-74
2021/06/05 11:06:50;;;;;;;542.67;479.17;;;;;;;;;;4996388;28;20069;-77
2021/06/05 11:09:36;;;;;;;532.53;466.95;;;;;;;;;;5001695;28;20034;-74
2021/06/05 11:12:25;;;;;;;535.38;475.48;;;;;;;;;;4995728;28;20030;-74
2021/06/05 11:14:51;;;;;;;534.92;469.80;;;;;;;;;;5012926;28;20014;-75
2021/06/05 11:17:40;;;;;;;530.67;465.48;;;;;;;;;;5030056;28;20029;-77
2021/06/05 11:20:07;;;;;;;528.63;467.08;;;;;;;;;;4990033;28;20053;-77
2021/06/05 11:22:49;;;;;;;530.25;463.08;;;;;;;;;;4991624;28;20482;-74
2021/06/05 11:25:16;;;;;;;535.70;469.63;;;;;;;;;;5013148;28;20056;-76
2021/06/05 11:27:42;;;;;;;522.95;463.70;;;;;;;;;;5003512;28;20034;-76
2021/06/05 11:30:23;;;;;;;534.05;470.15;;;;;;;;;;4995810;28;20041;-75
2021/06/05 11:33:09;;;;;;;537.00;476.17;;;;;;;;;;4992956;28;20181;-76
2021/06/05 11:41:52;;;;;;;549.25;488.00;;;;;;;;;;5047718;28;20040;-76
2021/06/05 11:44:33;;;;;;;577.08;513.83;;;;;;;;;;5027879;28;20087;-75
2021/06/05 11:47:22;;;;;;;586.45;522.20;;;;;;;;;;5050355;28;20031;-77
2021/06/05 11:49:55;;;;;;;618.88;550.75;;;;;;;;;;5040733;28;20124;-74
2021/06/05 11:52:41;;;;;;;682.38;609.22;;;;;;;;;;5035724;28;20029;-75
2021/06/05 11:55:10;;;;;;;568.70;506.15;;;;;;;;;;5054461;28;20837;-78
2021/06/05 11:57:42;;;;;;;557.97;496.02;;;;;;;;;;5048100;28;20396;-81
2021/06/05 12:00:18;;;;;;;550.17;489.63;;;;;;;;;;5044402;28;20025;-79
2021/06/05 12:03:02;;;;;;;548.30;487.90;;;;;;;;;;5052319;28;20025;-79
2021/06/05 12:05:37;;;;;;;551.35;490.40;;;;;;;;;;5047857;28;20033;-79
2021/06/05 12:08:19;;;;;;;551.38;489.05;;;;;;;;;;5033589;28;20112;-80
2021/06/05 12:10:45;;;;;;;546.75;483.08;;;;;;;;;;5032740;28;20400;-78
2021/06/05 12:13:34;;;;;;;556.42;495.50;;;;;;;;;;5034317;28;20032;-79
2021/06/05 12:16:06;;;;;;;566.58;503.73;;;;;;;;;;5041202;28;20534;-78
2021/06/05 12:18:32;;;;;;;565.88;498.95;;;;;;;;;;5044364;28;20021;-78
2021/06/05 12:21:05;;;;;;;557.80;495.10;;;;;;;;;;5048994;28;20025;-79
2021/06/05 12:23:42;;;;;;;570.70;508.15;;;;;;;;;;5051626;28;20032;-79
2021/06/05 12:26:16;;;;;;;562.50;498.17;;;;;;;;;;5034312;28;20043;-79
2021/06/05 12:28:46;;;;;;;563.60;497.08;;;;;;;;;;5043260;28;20394;-79
2021/06/05 12:31:20;;;;;;;579.72;507.20;;;;;;;;;;5034708;28;20021;-80
2021/06/05 12:34:07;;;;;;;563.50;498.77;;;;;;;;;;5034500;28;20600;-79
2021/06/05 12:36:39;;;;;;;567.55;504.10;;;;;;;;;;5046230;28;20013;-78
2021/06/05 12:39:14;;;;;;;571.17;508.20;;;;;;;;;;5034230;28;20090;-77
2021/06/05 12:41:42;;;;;;;564.05;501.23;;;;;;;;;;5052241;28;20408;-78
2021/06/05 12:44:15;;;;;;;570.70;506.88;;;;;;;;;;5046373;28;20081;-79
2021/06/05 12:46:42;;;;;;;567.70;505.08;;;;;;;;;;5033990;28;20491;-79
2021/06/05 12:49:10;;;;;;;581.67;518.47;;;;;;;;;;5049252;28;20385;-80
2021/06/05 12:51:47;;;;;;;573.67;510.75;;;;;;;;;;5046843;28;20032;-79
2021/06/05 12:54:37;;;;;;;578.42;514.85;;;;;;;;;;5028450;28;20123;-80
2021/06/05 12:57:21;;;;;;;577.15;513.45;;;;;;;;;;5028497;28;20065;-79
2021/06/05 12:59:47;;;;;;;589.92;525.20;;;;;;;;;;5045636;28;20029;-77
2021/06/05 13:02:32;;;;;;;587.80;522.90;;;;;;;;;;5033538;28;20036;-79
2021/06/05 13:05:20;;;;;;;582.67;518.38;;;;;;;;;;5029145;28;20028;-80
2021/06/05 13:07:47;;;;;;;595.00;529.83;;;;;;;;;;5040673;28;20072;-78
2021/06/05 13:10:19;;;;;;;600.88;535.47;;;;;;;;;;5043438;28;20421;-80
2021/06/05 13:12:45;;;;;;;590.88;525.33;;;;;;;;;;5033255;28;20036;-78
2021/06/05 13:15:13;;;;;;;595.72;530.72;;;;;;;;;;5033663;28;20071;-79
2021/06/05 13:18:05;;;;;;;587.40;522.85;;;;;;;;;;5048872;28;20030;-79
2021/06/05 13:20:34;;;;;;;587.08;522.22;;;;;;;;;;5030612;28;20559;-79
2021/06/05 13:23:21;;;;;;;593.30;528.50;;;;;;;;;;5031137;28;20025;-79
2021/06/05 13:25:47;;;;;;;596.30;530.42;;;;;;;;;;5047723;28;20845;-81
2021/06/05 13:28:35;;;;;;;592.72;527.60;;;;;;;;;;5028814;28;20031;-79
2021/06/05 13:31:02;;;;;;;575.78;512.08;;;;;;;;;;5025053;28;20022;-82
2021/06/05 13:33:34;;;;;;;584.85;518.45;;;;;;;;;;5025701;28;20139;-78
2021/06/05 13:36:02;;;;;;;591.83;526.58;;;;;;;;;;5026207;28;20032;-80
2021/06/05 13:38:29;;;;;;;577.38;511.42;;;;;;;;;;5030619;28;20025;-79
2021/06/05 13:40:57;;;;;;;592.80;527.35;;;;;;;;;;5032292;28;20049;-79
2021/06/05 13:43:23;;;;;;;587.28;522.35;;;;;;;;;;5034305;28;20036;-81
2021/06/05 13:45:49;;;;;;;590.40;525.10;;;;;;;;;;5047173;28;20083;-79
2021/06/05 13:48:15;;;;;;;585.60;520.63;;;;;;;;;;5029655;28;20124;-78
2021/06/05 13:50:48;;;;;;;572.47;508.70;;;;;;;;;;5035689;28;20029;-79
2021/06/05 13:53:34;;;;;;;593.88;527.75;;;;;;;;;;5025336;28;20124;-79
2021/06/05 13:56:02;;;;;;;590.22;522.28;;;;;;;;;;5030852;28;20120;-79
2021/06/05 13:58:28;;;;;;;582.42;514.30;;;;;;;;;;5035421;28;20021;-79
2021/06/05 14:01:16;;;;;;;599.38;531.88;;;;;;;;;;5044371;28;20025;-77
2021/06/05 14:03:42;;;;;;;585.58;512.60;;;;;;;;;;5033714;28;20076;-80
2021/06/05 14:06:08;;;;;;;584.65;509.65;;;;;;;;;;5035044;28;20029;-79
2021/06/05 14:08:34;;;;;;;597.13;523.00;;;;;;;;;;5036245;28;20366;-78
2021/06/05 14:11:00;;;;;;;588.63;515.25;;;;;;;;;;5033633;28;20439;-78
2021/06/05 14:13:31;;;;;;;602.38;535.88;;;;;;;;;;5036624;28;20021;-79
2021/06/05 14:16:00;;;;;;;598.95;525.72;;;;;;;;;;5054913;28;20028;-77
2021/06/05 14:18:29;;;;;;;608.42;531.17;;;;;;;;;;5031304;28;20025;-80
2021/06/05 14:20:56;;;;;;;594.88;520.40;;;;;;;;;;5042289;28;20040;-79
2021/06/05 14:23:23;;;;;;;613.88;543.38;;;;;;;;;;5037814;28;20033;-80
2021/06/05 14:25:58;;;;;;;578.65;506.33;;;;;;;;;;5040994;28;20029;-79